Observation data for Reese Center on 06/14/2019      Previous  Date  Next       Current Mesonet Observations  Soil Data  Daily Summary Page  Observations in Plain Language
KREE 140500Z 17018KT 24/15 A30 RMK A01 T02370147  RH  058%=      5-min Rain = 0
KREE 140505Z 17017KT 24/15 A3001 RMK A01 T02360148  RH  059%=      5-min Rain = 0
KREE 140510Z 17017KT 24/15 A3001 RMK A01 T02360148  RH  059%=      5-min Rain = 0
KREE 140515Z 17018G23KT 24/15 A3001 RMK A01 T02350148  RH  059%=      5-min Rain = 0
KREE 140520Z 17018G24KT 24/15 A3001 RMK A01 T02350149  RH  060%=      5-min Rain = 0
KREE 140525Z 17018KT 24/15 A3002 RMK A01 T02350149  RH  060%=      5-min Rain = 0
KREE 140530Z 17017KT 23/15 A3001 RMK A01 T02340149  RH  060%=      5-min Rain = 0
KREE 140535Z 17017G22KT 23/15 A3001 RMK A01 T02330150  RH  061%=      5-min Rain = 0
KREE 140540Z 17017KT 23/15 A3001 RMK A01 T02320150  RH  061%=      5-min Rain = 0
KREE 140545Z 17017G22KT 23/15 A3001 RMK A01 T02320151  RH  062%=      5-min Rain = 0
KREE 140550Z 17019KT 23/15 A3001 RMK A01 T02330152  RH  062%=      5-min Rain = 0
KREE 140555Z 17018G24KT 23/15 A3001 RMK A01 T02330152  RH  062%=      5-min Rain = 0
KREE 140600Z 18018G27KT 23/15 A3001 RMK A01 T02330154  RH  062%=      5-min Rain = 0
KREE 140605Z 17018KT 23/16 A30 RMK A01 T02320155  RH  063%=      5-min Rain = 0
KREE 140610Z 17019KT 23/16 A30 RMK A01 T02320156  RH  064%=      5-min Rain = 0
KREE 140615Z 17019KT 23/16 A30 RMK A01 T02320157  RH  064%=      5-min Rain = 0
KREE 140620Z 17018KT 23/16 A2999 RMK A01 T02310157  RH  064%=      5-min Rain = 0
KREE 140625Z 17018KT 23/16 A2999 RMK A01 T02310158  RH  065%=      5-min Rain = 0
KREE 140630Z 17017KT 23/16 A2999 RMK A01 T02300158  RH  065%=      5-min Rain = 0
KREE 140635Z 17017KT 23/16 A30 RMK A01 T02300159  RH  066%=      5-min Rain = 0
KREE 140640Z 17017KT 23/16 A30 RMK A01 T02290159  RH  066%=      5-min Rain = 0
KREE 140645Z 17018G23KT 23/16 A30 RMK A01 T02290159  RH  066%=      5-min Rain = 0
KREE 140650Z 18017G22KT 23/16 A30 RMK A01 T02290160  RH  067%=      5-min Rain = 0
KREE 140655Z 18016G21KT 23/16 A30 RMK A01 T02280160  RH  067%=      5-min Rain = 0
KREE 140700Z 18017G22KT 23/16 A30 RMK A01 T02260161  RH  068%=      5-min Rain = 0
KREE 140705Z 18018KT 23/16 A30 RMK A01 T02260161  RH  068%=      5-min Rain = 0
KREE 140710Z 18016KT 23/16 A30 RMK A01 T02250161  RH  069%=      5-min Rain = 0
KREE 140715Z 18016KT 22/16 A30 RMK A01 T02240162  RH  069%=      5-min Rain = 0
KREE 140720Z 18016KT 22/16 A30 RMK A01 T02240162  RH  070%=      5-min Rain = 0
KREE 140725Z 18015G20KT 22/16 A30 RMK A01 T02240163  RH  070%=      5-min Rain = 0
KREE 140730Z 18014KT 22/16 A30 RMK A01 T02230163  RH  071%=      5-min Rain = 0
KREE 140735Z 18013KT 22/16 A30 RMK A01 T02220164  RH  071%=      5-min Rain = 0
KREE 140740Z 18013KT 22/16 A30 RMK A01 T02220164  RH  071%=      5-min Rain = 0
KREE 140745Z 17012KT 22/16 A30 RMK A01 T02200164  RH  072%=      5-min Rain = 0
KREE 140750Z 18012KT 22/16 A30 RMK A01 T02190164  RH  073%=      5-min Rain = 0
KREE 140755Z 17012KT 22/17 A2999 RMK A01 T02170165  RH  074%=      5-min Rain = 0
KREE 140800Z 17015KT 22/17 A2998 RMK A01 T02160165  RH  075%=      5-min Rain = 0
KREE 140805Z 17016KT 22/17 A2997 RMK A01 T02160166  RH  075%=      5-min Rain = 0
KREE 140810Z 17014KT 22/17 A2997 RMK A01 T02160166  RH  075%=      5-min Rain = 0
KREE 140815Z 17015KT 22/17 A2997 RMK A01 T02160167  RH  075%=      5-min Rain = 0
KREE 140820Z 17016KT 22/17 A2996 RMK A01 T02170167  RH  075%=      5-min Rain = 0
KREE 140825Z 17014KT 22/17 A2996 RMK A01 T02170167  RH  075%=      5-min Rain = 0
KREE 140830Z 17016KT 22/17 A2996 RMK A01 T02170168  RH  075%=      5-min Rain = 0
KREE 140835Z 16016KT 22/17 A2995 RMK A01 T02170168  RH  075%=      5-min Rain = 0
KREE 140840Z 16016KT 22/17 A2995 RMK A01 T02160168  RH  076%=      5-min Rain = 0
KREE 140845Z 17014G19KT 22/17 A2995 RMK A01 T02160168  RH  076%=      5-min Rain = 0
KREE 140850Z 16012KT 22/17 A2996 RMK A01 T02150168  RH  077%=      5-min Rain = 0
KREE 140855Z 15009KT 22/17 A2997 RMK A01 T02150169  RH  077%=      5-min Rain = 0
KREE 140900Z 07008G13KT 22/17 A2999 RMK A01 T02150169  RH  077%=      5-min Rain = 0
KREE 140905Z 05011KT 22/17 A30 RMK A01 T02160169  RH  076%=      5-min Rain = 0
KREE 140910Z 07012KT 22/17 A30 RMK A01 T02170168  RH  076%=      5-min Rain = 0
KREE 140915Z 09010KT 22/17 A30 RMK A01 T02180168  RH  075%=      5-min Rain = 0
KREE 140920Z 12009G14KT 22/17 A2999 RMK A01 T02180168  RH  075%=      5-min Rain = 0
KREE 140925Z 13008KT 22/17 A2998 RMK A01 T02180167  RH  075%=      5-min Rain = 0
KREE 140930Z 14009KT 22/17 A2999 RMK A01 T02170167  RH  075%=      5-min Rain = 0
KREE 140935Z 13011KT 22/17 A2999 RMK A01 T02190166  RH  074%=      5-min Rain = 0
KREE 140940Z 10010KT 22/17 A2999 RMK A01 T02180167  RH  074%=      5-min Rain = 0
KREE 140945Z 11009KT 22/17 A2999 RMK A01 T02150168  RH  076%=      5-min Rain = 0
KREE 140950Z 12010KT 21/17 A30 RMK A01 T02140168  RH  077%=      5-min Rain = 0
KREE 140955Z 13009KT 22/17 A30 RMK A01 T02150168  RH  076%=      5-min Rain = 0
KREE 141000Z 15009G14KT 22/17 A30 RMK A01 T02150167  RH  076%=      5-min Rain = 0
KREE 141005Z 15009KT 21/17 A2999 RMK A01 T02140167  RH  076%=      5-min Rain = 0
KREE 141010Z 16010KT 21/17 A2999 RMK A01 T02130167  RH  077%=      5-min Rain = 0
KREE 141015Z 15011KT 21/17 A2999 RMK A01 T02110167  RH  078%=      5-min Rain = 0
KREE 141020Z 15010KT 21/17 A2998 RMK A01 T02090167  RH  079%=      5-min Rain = 0
KREE 141025Z 14008KT 21/17 A2999 RMK A01 T02070167  RH  080%=      5-min Rain = 0
KREE 141030Z 15007KT 21/17 A2999 RMK A01 T02060166  RH  080%=      5-min Rain = 0
KREE 141035Z 15007KT 21/17 A30 RMK A01 T02060165  RH  079%=      5-min Rain = 0
KREE 141040Z 14010KT 21/16 A2999 RMK A01 T02080164  RH  078%=      5-min Rain = 0
KREE 141045Z 14009KT 21/16 A2999 RMK A01 T02080164  RH  078%=      5-min Rain = 0
KREE 141050Z 14010KT 21/16 A2999 RMK A01 T02070164  RH  078%=      5-min Rain = 0
KREE 141055Z 15009KT 21/16 A2999 RMK A01 T02050164  RH  079%=      5-min Rain = 0
KREE 141100Z 15010KT 20/16 A2999 RMK A01 T02040164  RH  080%=      5-min Rain = 0
KREE 141105Z 14010KT 20/16 A2999 RMK A01 T02030164  RH  080%=      5-min Rain = 0
KREE 141110Z 14010KT 20/16 A2999 RMK A01 T02020164  RH  081%=      5-min Rain = 0
KREE 141115Z 13011KT 20/16 A2999 RMK A01 T02030164  RH  080%=      5-min Rain = 0
KREE 141120Z 13010KT 20/16 A2999 RMK A01 T02020163  RH  080%=      5-min Rain = 0
KREE 141125Z 13009G14KT 20/16 A2999 RMK A01 T02010163  RH  081%=      5-min Rain = 0
KREE 141130Z 14011KT 20/16 A2999 RMK A01 T02000163  RH  081%=      5-min Rain = 0
KREE 141135Z 14011KT 20/16 A2999 RMK A01 T01990163  RH  082%=      5-min Rain = 0
KREE 141140Z 14011KT 20/16 A2999 RMK A01 T01990164  RH  082%=      5-min Rain = 0
KREE 141145Z 14013KT 20/16 A2998 RMK A01 T01990164  RH  082%=      5-min Rain = 0
KREE 141150Z 14013KT 20/16 A2998 RMK A01 T01980164  RH  082%=      5-min Rain = 0
KREE 141155Z 14011KT 20/16 A2998 RMK A01 T01980164  RH  082%=      5-min Rain = 0
KREE 141200Z 14010KT 20/16 A2999 RMK A01 T01980164  RH  082%=      5-min Rain = 0
KREE 141205Z 14011KT 20/16 A2999 RMK A01 T01970164  RH  083%=      5-min Rain = 0
KREE 141210Z 15011KT 20/16 A2999 RMK A01 T01970164  RH  083%=      5-min Rain = 0
KREE 141215Z 15013KT 20/16 A2999 RMK A01 T01980163  RH  082%=      5-min Rain = 0
KREE 141220Z 16013KT 20/16 A2998 RMK A01 T02000163  RH  081%=      5-min Rain = 0
KREE 141225Z 16013KT 20/16 A2998 RMK A01 T02000163  RH  081%=      5-min Rain = 0
KREE 141230Z 16013KT 20/16 A2998 RMK A01 T02000163  RH  081%=      5-min Rain = 0
KREE 141235Z 16012KT 20/16 A2998 RMK A01 T01980163  RH  082%=      5-min Rain = 0
KREE 141240Z 16012KT 20/16 A2998 RMK A01 T01980162  RH  081%=      5-min Rain = 0
KREE 141245Z 16013KT 20/16 A2998 RMK A01 T02000162  RH  080%=      5-min Rain = 0
KREE 141250Z 17012KT 20/16 A2998 RMK A01 T02040162  RH  078%=      5-min Rain = 0
KREE 141255Z 17013G19KT 21/16 A2998 RMK A01 T02090162  RH  076%=      5-min Rain = 0
KREE 141300Z 17015KT 21/16 A2998 RMK A01 T02120162  RH  075%=      5-min Rain = 0
KREE 141305Z 18016G22KT 22/16 A2998 RMK A01 T02150160  RH  073%=      5-min Rain = 0
KREE 141310Z 18014KT 22/16 A2998 RMK A01 T02160161  RH  073%=      5-min Rain = 0
KREE 141315Z 18016G23KT 22/16 A2998 RMK A01 T02160159  RH  072%=      5-min Rain = 0
KREE 141320Z 18015KT 22/16 A2998 RMK A01 T02150158  RH  072%=      5-min Rain = 0
KREE 141325Z 18015KT 21/16 A2998 RMK A01 T02130157  RH  072%=      5-min Rain = 0
KREE 141330Z 18014G19KT 21/16 A2998 RMK A01 T02130157  RH  072%=      5-min Rain = 0
KREE 141335Z 18015KT 21/16 A2997 RMK A01 T02140156  RH  071%=      5-min Rain = 0
KREE 141340Z 17015G20KT 21/16 A2997 RMK A01 T02130156  RH  072%=      5-min Rain = 0
KREE 141345Z 18014KT 21/16 A2997 RMK A01 T02130158  RH  072%=      5-min Rain = 0
KREE 141350Z 18013KT 21/16 A2997 RMK A01 T02130159  RH  073%=      5-min Rain = 0
KREE 141355Z 18013KT 21/16 A2997 RMK A01 T02140160  RH  073%=      5-min Rain = 0
KREE 141400Z 18012KT 22/16 A2997 RMK A01 T02160161  RH  073%=      5-min Rain = 0
KREE 141405Z 18014G19KT 22/16 A2997 RMK A01 T02170161  RH  072%=      5-min Rain = 0
KREE 141410Z 18013KT 22/16 A2997 RMK A01 T02180162  RH  072%=      5-min Rain = 0
KREE 141415Z 18013KT 22/16 A2997 RMK A01 T02210162  RH  071%=      5-min Rain = 0
KREE 141420Z 18015KT 22/16 A2997 RMK A01 T02230162  RH  070%=      5-min Rain = 0
KREE 141425Z 18015KT 23/16 A2997 RMK A01 T02250163  RH  069%=      5-min Rain = 0
KREE 141430Z 18015KT 23/16 A2997 RMK A01 T02270163  RH  069%=      5-min Rain = 0
KREE 141435Z 18015KT 23/16 A2997 RMK A01 T02290163  RH  068%=      5-min Rain = 0
KREE 141440Z 18016KT 23/16 A2997 RMK A01 T02300162  RH  067%=      5-min Rain = 0
KREE 141445Z 18016KT 23/16 A2997 RMK A01 T02290161  RH  067%=      5-min Rain = 0
KREE 141450Z 19017KT 23/16 A2997 RMK A01 T02280160  RH  067%=      5-min Rain = 0
KREE 141455Z 19016KT 23/16 A2997 RMK A01 T02290160  RH  067%=      5-min Rain = 0
KREE 141500Z 19016KT 23/16 A2996 RMK A01 T02300160  RH  066%=      5-min Rain = 0
KREE 141505Z 20016KT 23/16 A2996 RMK A01 T02300158  RH  065%=      5-min Rain = 0
KREE 141510Z 20016KT 23/16 A2996 RMK A01 T02310159  RH  065%=      5-min Rain = 0
KREE 141515Z 19017KT 24/16 A2996 RMK A01 T02370162  RH  064%=      5-min Rain = 0
KREE 141520Z 19017KT 24/16 A2996 RMK A01 T02430162  RH  062%=      5-min Rain = 0
KREE 141525Z 20016G21KT 25/16 A2996 RMK A01 T02490161  RH  060%=      5-min Rain = 0
KREE 141530Z 20017KT 25/16 A2996 RMK A01 T02480157  RH  058%=      5-min Rain = 0
KREE 141535Z 19017G22KT 25/16 A2995 RMK A01 T02520158  RH  057%=      5-min Rain = 0
KREE 141540Z 20018G24KT 25/16 A2995 RMK A01 T02510157  RH  057%=      5-min Rain = 0
KREE 141545Z 20019G25KT 25/16 A2995 RMK A01 T02530156  RH  056%=      5-min Rain = 0
KREE 141550Z 20019KT 26/15 A2995 RMK A01 T02570152  RH  053%=      5-min Rain = 0
KREE 141555Z 20018KT 26/15 A2995 RMK A01 T02590154  RH  053%=      5-min Rain = 0
KREE 141600Z 20018G23KT 26/16 A2995 RMK A01 T02620156  RH  053%=      5-min Rain = 0
KREE 141605Z 20017G24KT 26/15 A2995 RMK A01 T02630148  RH  050%=      5-min Rain = 0
KREE 141610Z 21018G24KT 26/15 A2995 RMK A01 T02620146  RH  050%=      5-min Rain = 0
KREE 141615Z 20016KT 27/15 A2995 RMK A01 T02660150  RH  050%=      5-min Rain = 0
KREE 141620Z 20017KT 27/15 A2995 RMK A01 T02700149  RH  048%=      5-min Rain = 0
KREE 141625Z 20017G22KT 27/15 A2995 RMK A01 T02710147  RH  048%=      5-min Rain = 0
KREE 141630Z 20017KT 27/14 A2995 RMK A01 T02710144  RH  047%=      5-min Rain = 0
KREE 141635Z 20017G24KT 27/15 A2995 RMK A01 T02710148  RH  048%=      5-min Rain = 0
KREE 141640Z 20014G21KT 27/15 A2995 RMK A01 T02730149  RH  048%=      5-min Rain = 0
KREE 141645Z 21016G22KT 27/14 A2995 RMK A01 T02720144  RH  046%=      5-min Rain = 0
KREE 141650Z 20015G21KT 28/15 A2995 RMK A01 T02800149  RH  046%=      5-min Rain = 0
KREE 141655Z 21018KT 28/15 A2994 RMK A01 T02830147  RH  044%=      5-min Rain = 0
KREE 141700Z 21016G22KT 28/15 A2994 RMK A01 T02840147  RH  044%=      5-min Rain = 0
KREE 141705Z 21016G21KT 29/15 A2994 RMK A01 T02870145  RH  043%=      5-min Rain = 0
KREE 141710Z 20016G21KT 29/14 A2994 RMK A01 T02860143  RH  043%=      5-min Rain = 0
KREE 141715Z 20018G23KT 29/15 A2994 RMK A01 T02920147  RH  042%=      5-min Rain = 0
KREE 141720Z 19017G22KT 29/15 A2994 RMK A01 T02920145  RH  041%=      5-min Rain = 0
KREE 141725Z 19017G22KT 30/15 A2994 RMK A01 T02960147  RH  041%=      5-min Rain = 0
KREE 141730Z 20017G22KT 30/14 A2994 RMK A01 T02960143  RH  040%=      5-min Rain = 0
KREE 141735Z 19018KT 29/14 A2993 RMK A01 T02930142  RH  041%=      5-min Rain = 0
KREE 141740Z 20019G25KT 30/15 A2994 RMK A01 T02990145  RH  040%=      5-min Rain = 0
KREE 141745Z 19018KT 30/14 A2993 RMK A01 T02970142  RH  040%=      5-min Rain = 0
KREE 141750Z 19017G22KT 30/15 A2993 RMK A01 T03000146  RH  040%=      5-min Rain = 0
KREE 141755Z 19020KT 30/14 A2993 RMK A01 T03000141  RH  039%=      5-min Rain = 0
KREE 141800Z 20019G25KT 30/14 A2993 RMK A01 T03000140  RH  038%=      5-min Rain = 0
KREE 141805Z 21019G25KT 30/14 A2993 RMK A01 T03000139  RH  038%=      5-min Rain = 0
KREE 141810Z 22018G25KT 30/14 A2993 RMK A01 T03000139  RH  038%=      5-min Rain = 0
KREE 141815Z 22019G25KT 30/14 A2992 RMK A01 T03000137  RH  038%=      5-min Rain = 0
KREE 141820Z 21019G24KT 30/14 A2992 RMK A01 T03040140  RH  038%=      5-min Rain = 0
KREE 141825Z 20018G24KT 30/14 A2992 RMK A01 T03040140  RH  038%=      5-min Rain = 0
KREE 141830Z 21018G23KT 31/14 A2992 RMK A01 T03050140  RH  037%=      5-min Rain = 0
KREE 141835Z 21016G21KT 31/14 A2991 RMK A01 T03100140  RH  036%=      5-min Rain = 0
KREE 141840Z 20016G21KT 31/14 A2991 RMK A01 T03130143  RH  036%=      5-min Rain = 0
KREE 141845Z 21015KT 31/14 A299 RMK A01 T03140139  RH  035%=      5-min Rain = 0
KREE 141850Z 20018G23KT 32/14 A299 RMK A01 T03160140  RH  035%=      5-min Rain = 0
KREE 141855Z 20018G23KT 31/14 A299 RMK A01 T03120135  RH  035%=      5-min Rain = 0
KREE 141900Z 19017G22KT 31/14 A299 RMK A01 T03140136  RH  035%=      5-min Rain = 0
KREE 141905Z 21017G22KT 32/14 A299 RMK A01 T03190135  RH  033%=      5-min Rain = 0
KREE 141910Z 20017G23KT 32/13 A2989 RMK A01 T03180134  RH  033%=      5-min Rain = 0
KREE 141915Z 19016G23KT 32/14 A2989 RMK A01 T03180138  RH  034%=      5-min Rain = 0
KREE 141920Z 20016G23KT 32/14 A2989 RMK A01 T03190136  RH  034%=      5-min Rain = 0
KREE 141925Z 20017G24KT 32/13 A2988 RMK A01 T03200134  RH  033%=      5-min Rain = 0
KREE 141930Z 20018G25KT 33/13 A2988 RMK A01 T03250132  RH  032%=      5-min Rain = 0
KREE 141935Z 20017KT 33/14 A2988 RMK A01 T03310136  RH  031%=      5-min Rain = 0
KREE 141940Z 20016G22KT 33/13 A2988 RMK A01 T03250131  RH  032%=      5-min Rain = 0
KREE 141945Z 19017KT 32/13 A2987 RMK A01 T03230126  RH  031%=      5-min Rain = 0
KREE 141950Z 20016KT 32/13 A2987 RMK A01 T03220127  RH  031%=      5-min Rain = 0
KREE 141955Z 19017KT 32/13 A2987 RMK A01 T03220129  RH  031%=      5-min Rain = 0
KREE 142000Z 19017G22KT 33/14 A2987 RMK A01 T03310135  RH  031%=      5-min Rain = 0
KREE 142005Z 19017G24KT 34/14 A2987 RMK A01 T03390143  RH  031%=      5-min Rain = 0
KREE 142010Z 20018G23KT 34/13 A2987 RMK A01 T03360133  RH  030%=      5-min Rain = 0
KREE 142015Z 21017KT 34/14 A2987 RMK A01 T03360137  RH  031%=      5-min Rain = 0
KREE 142020Z 20015KT 33/13 A2987 RMK A01 T03330130  RH  030%=      5-min Rain = 0
KREE 142025Z 20016G23KT 33/13 A2987 RMK A01 T03330134  RH  031%=      5-min Rain = 0
KREE 142030Z 20017G22KT 34/14 A2987 RMK A01 T03370139  RH  031%=      5-min Rain = 0
KREE 142035Z 19016G22KT 34/14 A2986 RMK A01 T03410138  RH  030%=      5-min Rain = 0
KREE 142040Z 19018G24KT 34/14 A2986 RMK A01 T03400137  RH  030%=      5-min Rain = 0
KREE 142045Z 19019KT 34/14 A2986 RMK A01 T03400137  RH  030%=      5-min Rain = 0
KREE 142050Z 19015KT 34/14 A2986 RMK A01 T03410135  RH  029%=      5-min Rain = 0
KREE 142055Z 19018G25KT 34/13 A2986 RMK A01 T03410130  RH  029%=      5-min Rain = 0
KREE 142100Z 20019KT 34/13 A2986 RMK A01 T03370129  RH  029%=      5-min Rain = 0
KREE 142105Z 20017KT 34/13 A2985 RMK A01 T03370128  RH  029%=      5-min Rain = 0
KREE 142110Z 19016G22KT 34/13 A2985 RMK A01 T03370129  RH  029%=      5-min Rain = 0
KREE 142115Z 20017KT 34/13 A2985 RMK A01 T03360127  RH  029%=      5-min Rain = 0
KREE 142120Z 19017G24KT 34/13 A2985 RMK A01 T03400132  RH  029%=      5-min Rain = 0
KREE 142125Z 19017G23KT 35/13 A2985 RMK A01 T03450129  RH  028%=      5-min Rain = 0
KREE 142130Z 19018G23KT 35/13 A2985 RMK A01 T03450127  RH  027%=      5-min Rain = 0
KREE 142135Z 20018G24KT 34/13 A2985 RMK A01 T03440127  RH  028%=      5-min Rain = 0
KREE 142140Z 20018G23KT 35/13 A2984 RMK A01 T03450130  RH  028%=      5-min Rain = 0
KREE 142145Z 18020G25KT 35/13 A2984 RMK A01 T03470127  RH  027%=      5-min Rain = 0
KREE 142150Z 20018G24KT 35/13 A2984 RMK A01 T03460131  RH  028%=      5-min Rain = 0
KREE 142155Z 20020G28KT 35/13 A2983 RMK A01 T03460128  RH  027%=      5-min Rain = 0
KREE 142200Z 19018G24KT 34/13 A2983 RMK A01 T03440125  RH  027%=      5-min Rain = 0
KREE 142205Z 19017G23KT 35/13 A2983 RMK A01 T03470128  RH  027%=      5-min Rain = 0
KREE 142210Z 19020KT 35/12 A2983 RMK A01 T03460123  RH  026%=      5-min Rain = 0
KREE 142215Z 19017G24KT 35/12 A2983 RMK A01 T03460124  RH  027%=      5-min Rain = 0
KREE 142220Z 19020G28KT 35/12 A2983 RMK A01 T03470122  RH  026%=      5-min Rain = 0
KREE 142225Z 20019G25KT 35/12 A2983 RMK A01 T03460123  RH  026%=      5-min Rain = 0
KREE 142230Z 20020G25KT 35/12 A2983 RMK A01 T03450118  RH  026%=      5-min Rain = 0
KREE 142235Z 19019G25KT 35/12 A2983 RMK A01 T03450118  RH  026%=      5-min Rain = 0
KREE 142240Z 20019G24KT 34/12 A2982 RMK A01 T03440121  RH  026%=      5-min Rain = 0
KREE 142245Z 19020G26KT 35/12 A2982 RMK A01 T03450123  RH  027%=      5-min Rain = 0
KREE 142250Z 19021G27KT 34/12 A2982 RMK A01 T03430118  RH  026%=      5-min Rain = 0
KREE 142255Z 19019G24KT 34/12 A2982 RMK A01 T03430117  RH  026%=      5-min Rain = 0
KREE 142300Z 19020G28KT 34/12 A2982 RMK A01 T03440120  RH  026%=      5-min Rain = 0
KREE 142305Z 19020G26KT 34/12 A2981 RMK A01 T03430117  RH  026%=      5-min Rain = 0
KREE 142310Z 20018KT 34/11 A2981 RMK A01 T03430114  RH  025%=      5-min Rain = 0
KREE 142315Z 20019KT 34/11 A2981 RMK A01 T03440110  RH  025%=      5-min Rain = 0
KREE 142320Z 19018G23KT 34/11 A2981 RMK A01 T03440113  RH  025%=      5-min Rain = 0
KREE 142325Z 20018KT 34/12 A2981 RMK A01 T03430115  RH  025%=      5-min Rain = 0
KREE 142330Z 19018G25KT 34/11 A2981 RMK A01 T03400113  RH  026%=      5-min Rain = 0
KREE 142335Z 19018G23KT 33/11 A2981 RMK A01 T03340111  RH  026%=      5-min Rain = 0
KREE 142340Z 20018G23KT 33/11 A298 RMK A01 T03340109  RH  026%=      5-min Rain = 0
KREE 142345Z 19016G21KT 33/11 A298 RMK A01 T03320111  RH  027%=      5-min Rain = 0
KREE 142350Z 19015G21KT 33/11 A298 RMK A01 T03290112  RH  027%=      5-min Rain = 0
KREE 142355Z 19017G23KT 33/11 A298 RMK A01 T03290106  RH  026%=      5-min Rain = 0
KREE 150000Z 19013G18KT 33/11 A298 RMK A01 T03260106  RH  026%=      5-min Rain = 0
KREE 150005Z 19013KT 32/11 A298 RMK A01 T03240105  RH  026%=      5-min Rain = 0
KREE 150010Z 18013KT 32/11 A298 RMK A01 T03240109  RH  027%=      5-min Rain = 0
KREE 150015Z 18015KT 33/11 A2979 RMK A01 T03250112  RH  028%=      5-min Rain = 0
KREE 150020Z 18012KT 32/12 A2979 RMK A01 T03230115  RH  029%=      5-min Rain = 0
KREE 150025Z 18014G20KT 32/11 A2979 RMK A01 T03230111  RH  028%=      5-min Rain = 0
KREE 150030Z 19014KT 32/11 A2979 RMK A01 T03220110  RH  028%=      5-min Rain = 0
KREE 150035Z 18012KT 32/11 A2979 RMK A01 T03200112  RH  028%=      5-min Rain = 0
KREE 150040Z 18011KT 32/11 A298 RMK A01 T03200113  RH  029%=      5-min Rain = 0
KREE 150045Z 18012KT 32/11 A2979 RMK A01 T03200112  RH  029%=      5-min Rain = 0
KREE 150050Z 17011KT 32/11 A2979 RMK A01 T03180113  RH  029%=      5-min Rain = 0
KREE 150055Z 17012KT 32/11 A298 RMK A01 T03190112  RH  029%=      5-min Rain = 0
KREE 150100Z 17011KT 32/11 A298 RMK A01 T03200113  RH  029%=      5-min Rain = 0
KREE 150105Z 17011KT 32/11 A298 RMK A01 T03200114  RH  029%=      5-min Rain = 0
KREE 150110Z 17012KT 32/11 A298 RMK A01 T03180113  RH  029%=      5-min Rain = 0
KREE 150115Z 17011KT 32/12 A298 RMK A01 T03160116  RH  030%=      5-min Rain = 0
KREE 150120Z 17011KT 31/12 A298 RMK A01 T03130117  RH  031%=      5-min Rain = 0
KREE 150125Z 17011KT 31/12 A298 RMK A01 T03120117  RH  031%=      5-min Rain = 0
KREE 150130Z 17011KT 31/12 A298 RMK A01 T03120115  RH  030%=      5-min Rain = 0
KREE 150135Z 17010KT 31/12 A298 RMK A01 T03120115  RH  030%=      5-min Rain = 0
KREE 150140Z 17009KT 31/12 A298 RMK A01 T03080117  RH  031%=      5-min Rain = 0
KREE 150145Z 18009KT 31/12 A298 RMK A01 T03050116  RH  032%=      5-min Rain = 0
KREE 150150Z 18010KT 30/11 A298 RMK A01 T03030113  RH  032%=      5-min Rain = 0
KREE 150155Z 18011KT 30/11 A298 RMK A01 T03030110  RH  031%=      5-min Rain = 0
KREE 150200Z 18011KT 31/11 A298 RMK A01 T03050106  RH  030%=      5-min Rain = 0
KREE 150205Z 18011KT 30/11 A298 RMK A01 T03040106  RH  030%=      5-min Rain = 0
KREE 150210Z 18011KT 30/10 A298 RMK A01 T03020104  RH  030%=      5-min Rain = 0
KREE 150215Z 18012G18KT 30/10 A298 RMK A01 T03000104  RH  030%=      5-min Rain = 0
KREE 150220Z 17015G24KT 30/11 A298 RMK A01 T03000105  RH  031%=      5-min Rain = 0
KREE 150225Z 17019G25KT 30/13 A298 RMK A01 T03020131  RH  036%=      5-min Rain = 0
KREE 150230Z 18022G27KT 30/15 A2981 RMK A01 T03040149  RH  040%=      5-min Rain = 0
KREE 150235Z 19025G33KT 30/16 A2981 RMK A01 T03010160  RH  043%=      5-min Rain = 0
KREE 150240Z 18027G33KT 30/17 A2981 RMK A01 T02980165  RH  046%=      5-min Rain = 0
KREE 150245Z 18024G30KT 30/17 A2981 RMK A01 T02950165  RH  047%=      5-min Rain = 0
KREE 150250Z 18026G35KT 29/17 A2982 RMK A01 T02930165  RH  047%=      5-min Rain = 0
KREE 150255Z 18028G35KT 29/17 A2982 RMK A01 T02910166  RH  048%=      5-min Rain = 0
KREE 150300Z 18026G31KT 29/17 A2982 RMK A01 T02880166  RH  049%=      5-min Rain = 0
KREE 150305Z 18024KT 29/17 A2982 RMK A01 T02850167  RH  050%=      5-min Rain = 0
KREE 150310Z 18024G30KT 28/17 A2982 RMK A01 T02830167  RH  051%=      5-min Rain = 0
KREE 150315Z 18023G28KT 28/17 A2982 RMK A01 T02810167  RH  051%=      5-min Rain = 0
KREE 150320Z 18022G28KT 28/17 A2983 RMK A01 T02790168  RH  052%=      5-min Rain = 0
KREE 150325Z 18021G27KT 28/17 A2983 RMK A01 T02770168  RH  053%=      5-min Rain = 0
KREE 150330Z 18021G28KT 28/17 A2983 RMK A01 T02760168  RH  053%=      5-min Rain = 0
KREE 150335Z 18023G29KT 28/17 A2984 RMK A01 T02750168  RH  053%=      5-min Rain = 0
KREE 150340Z 18019G26KT 27/17 A2984 RMK A01 T02720169  RH  054%=      5-min Rain = 0
KREE 150345Z 18021G28KT 27/17 A2984 RMK A01 T02710169  RH  055%=      5-min Rain = 0
KREE 150350Z 18020G27KT 27/17 A2984 RMK A01 T02690169  RH  055%=      5-min Rain = 0
KREE 150355Z 18020G25KT 27/17 A2985 RMK A01 T02680169  RH  056%=      5-min Rain = 0
KREE 150400Z 18020G25KT 27/17 A2985 RMK A01 T02670169  RH  056%=      5-min Rain = 0
KREE 150405Z 18020G26KT 27/17 A2985 RMK A01 T02650169  RH  057%=      5-min Rain = 0
KREE 150410Z 18017KT 26/17 A2985 RMK A01 T02630169  RH  058%=      5-min Rain = 0
KREE 150415Z 18017KT 26/17 A2985 RMK A01 T02610169  RH  058%=      5-min Rain = 0
KREE 150420Z 18018G24KT 26/17 A2985 RMK A01 T02600170  RH  059%=      5-min Rain = 0
KREE 150425Z 18019G25KT 26/17 A2985 RMK A01 T02600170  RH  059%=      5-min Rain = 0
KREE 150430Z 18018G23KT 26/17 A2985 RMK A01 T02590171  RH  060%=      5-min Rain = 0
KREE 150435Z 18019G25KT 26/17 A2985 RMK A01 T02580171  RH  060%=      5-min Rain = 0
KREE 150440Z 18019G24KT 26/17 A2985 RMK A01 T02570171  RH  060%=      5-min Rain = 0
KREE 150445Z 18017G24KT 26/17 A2985 RMK A01 T02550171  RH  061%=      5-min Rain = 0
KREE 150450Z 18017G22KT 25/17 A2985 RMK A01 T02540171  RH  061%=      5-min Rain = 0
KREE 150455Z 17018G24KT 25/17 A2985 RMK A01 T02530171  RH  062%=      5-min Rain = 0

Page generated in 0.0093 seconds.